sensor_id;sensor_type;location;lat;lon;timestamp;P1;durP1;ratioP1;P2;durP2;ratioP2
73585;SDS011;61865;50.232;18.614;2023-07-31T00:01:11;0.40;;;0.40;;
73585;SDS011;61865;50.232;18.614;2023-07-31T00:03:33;0.30;;;0.30;;
73585;SDS011;61865;50.232;18.614;2023-07-31T00:05:55;0.63;;;0.63;;
73585;SDS011;61865;50.232;18.614;2023-07-31T00:08:18;29.85;;;3.50;;
73585;SDS011;61865;50.232;18.614;2023-07-31T00:10:40;0.40;;;0.40;;
73585;SDS011;61865;50.232;18.614;2023-07-31T00:13:04;0.50;;;0.50;;
73585;SDS011;61865;50.232;18.614;2023-07-31T00:15:26;0.40;;;0.40;;
73585;SDS011;61865;50.232;18.614;2023-07-31T00:17:48;0.40;;;0.40;;
73585;SDS011;61865;50.232;18.614;2023-07-31T00:20:11;0.40;;;0.40;;
73585;SDS011;61865;50.232;18.614;2023-07-31T00:22:33;0.40;;;0.40;;
73585;SDS011;61865;50.232;18.614;2023-07-31T00:24:56;0.50;;;0.50;;
73585;SDS011;61865;50.232;18.614;2023-07-31T00:27:19;0.90;;;0.90;;
73585;SDS011;61865;50.232;18.614;2023-07-31T00:29:46;0.65;;;0.65;;
73585;SDS011;61865;50.232;18.614;2023-07-31T00:32:08;0.40;;;0.40;;
73585;SDS011;61865;50.232;18.614;2023-07-31T00:34:31;0.50;;;0.50;;
73585;SDS011;61865;50.232;18.614;2023-07-31T00:36:53;0.40;;;0.40;;
73585;SDS011;61865;50.232;18.614;2023-07-31T00:39:15;0.50;;;0.50;;
73585;SDS011;61865;50.232;18.614;2023-07-31T00:41:39;0.93;;;0.93;;
73585;SDS011;61865;50.232;18.614;2023-07-31T00:44:02;0.30;;;0.30;;
73585;SDS011;61865;50.232;18.614;2023-07-31T00:46:25;0.45;;;0.45;;
73585;SDS011;61865;50.232;18.614;2023-07-31T00:48:48;0.45;;;0.45;;
73585;SDS011;61865;50.232;18.614;2023-07-31T00:51:10;0.40;;;0.40;;
73585;SDS011;61865;50.232;18.614;2023-07-31T00:53:33;0.40;;;0.40;;
73585;SDS011;61865;50.232;18.614;2023-07-31T00:55:56;0.93;;;0.93;;
73585;SDS011;61865;50.232;18.614;2023-07-31T00:58:18;0.50;;;0.50;;
73585;SDS011;61865;50.232;18.614;2023-07-31T01:00:40;0.70;;;0.70;;
73585;SDS011;61865;50.232;18.614;2023-07-31T01:03:04;0.80;;;0.80;;
73585;SDS011;61865;50.232;18.614;2023-07-31T01:05:29;0.50;;;0.50;;
73585;SDS011;61865;50.232;18.614;2023-07-31T01:07:56;0.47;;;0.47;;
73585;SDS011;61865;50.232;18.614;2023-07-31T01:10:21;0.40;;;0.40;;
73585;SDS011;61865;50.232;18.614;2023-07-31T01:12:45;25.80;;;5.30;;
73585;SDS011;61865;50.232;18.614;2023-07-31T01:15:08;0.50;;;0.50;;
73585;SDS011;61865;50.232;18.614;2023-07-31T01:17:31;0.52;;;0.52;;
73585;SDS011;61865;50.232;18.614;2023-07-31T01:19:55;0.47;;;0.47;;
73585;SDS011;61865;50.232;18.614;2023-07-31T01:22:25;0.40;;;0.40;;
73585;SDS011;61865;50.232;18.614;2023-07-31T01:24:54;0.52;;;0.52;;
73585;SDS011;61865;50.232;18.614;2023-07-31T01:27:20;0.50;;;0.50;;
73585;SDS011;61865;50.232;18.614;2023-07-31T01:29:45;1.05;;;1.05;;
73585;SDS011;61865;50.232;18.614;2023-07-31T01:32:09;0.30;;;0.30;;
73585;SDS011;61865;50.232;18.614;2023-07-31T01:34:32;0.40;;;0.40;;
73585;SDS011;61865;50.232;18.614;2023-07-31T01:36:55;0.40;;;0.40;;
73585;SDS011;61865;50.232;18.614;2023-07-31T01:39:19;0.50;;;0.50;;
73585;SDS011;61865;50.232;18.614;2023-07-31T01:41:42;0.57;;;0.57;;
73585;SDS011;61865;50.232;18.614;2023-07-31T01:44:06;0.50;;;0.50;;
73585;SDS011;61865;50.232;18.614;2023-07-31T01:46:28;0.70;;;0.70;;
73585;SDS011;61865;50.232;18.614;2023-07-31T01:48:50;0.40;;;0.40;;
73585;SDS011;61865;50.232;18.614;2023-07-31T01:51:13;0.50;;;0.50;;
73585;SDS011;61865;50.232;18.614;2023-07-31T01:53:35;0.60;;;0.60;;
73585;SDS011;61865;50.232;18.614;2023-07-31T01:55:58;0.52;;;0.52;;
73585;SDS011;61865;50.232;18.614;2023-07-31T01:58:20;0.40;;;0.40;;
73585;SDS011;61865;50.232;18.614;2023-07-31T02:00:44;0.40;;;0.40;;
73585;SDS011;61865;50.232;18.614;2023-07-31T02:03:06;0.40;;;0.40;;
73585;SDS011;61865;50.232;18.614;2023-07-31T02:05:28;0.50;;;0.50;;
73585;SDS011;61865;50.232;18.614;2023-07-31T02:07:51;0.45;;;0.45;;
73585;SDS011;61865;50.232;18.614;2023-07-31T02:10:13;0.40;;;0.40;;
73585;SDS011;61865;50.232;18.614;2023-07-31T02:12:35;0.50;;;0.50;;
73585;SDS011;61865;50.232;18.614;2023-07-31T02:14:58;0.43;;;0.43;;
73585;SDS011;61865;50.232;18.614;2023-07-31T02:17:22;0.55;;;0.55;;
73585;SDS011;61865;50.232;18.614;2023-07-31T02:19:44;0.50;;;0.50;;
73585;SDS011;61865;50.232;18.614;2023-07-31T02:22:06;0.50;;;0.50;;
73585;SDS011;61865;50.232;18.614;2023-07-31T02:24:29;0.50;;;0.50;;
73585;SDS011;61865;50.232;18.614;2023-07-31T02:26:52;0.50;;;0.50;;
73585;SDS011;61865;50.232;18.614;2023-07-31T02:29:14;0.50;;;0.50;;
73585;SDS011;61865;50.232;18.614;2023-07-31T02:31:36;0.50;;;0.50;;
73585;SDS011;61865;50.232;18.614;2023-07-31T02:34:00;0.50;;;0.50;;
73585;SDS011;61865;50.232;18.614;2023-07-31T02:36:22;0.52;;;0.52;;
73585;SDS011;61865;50.232;18.614;2023-07-31T02:38:45;0.50;;;0.50;;
73585;SDS011;61865;50.232;18.614;2023-07-31T02:41:07;0.88;;;0.85;;
73585;SDS011;61865;50.232;18.614;2023-07-31T02:43:29;0.60;;;0.60;;
73585;SDS011;61865;50.232;18.614;2023-07-31T02:45:52;0.63;;;0.63;;
73585;SDS011;61865;50.232;18.614;2023-07-31T02:48:14;0.50;;;0.50;;
73585;SDS011;61865;50.232;18.614;2023-07-31T02:50:38;0.60;;;0.60;;
73585;SDS011;61865;50.232;18.614;2023-07-31T02:53:00;0.60;;;0.60;;
73585;SDS011;61865;50.232;18.614;2023-07-31T02:55:22;0.60;;;0.60;;
73585;SDS011;61865;50.232;18.614;2023-07-31T02:57:45;0.50;;;0.50;;
73585;SDS011;61865;50.232;18.614;2023-07-31T03:00:07;0.60;;;0.60;;
73585;SDS011;61865;50.232;18.614;2023-07-31T03:02:30;0.68;;;0.68;;
73585;SDS011;61865;50.232;18.614;2023-07-31T03:04:52;0.50;;;0.50;;
73585;SDS011;61865;50.232;18.614;2023-07-31T03:07:16;0.80;;;0.80;;
73585;SDS011;61865;50.232;18.614;2023-07-31T03:09:38;0.60;;;0.60;;
73585;SDS011;61865;50.232;18.614;2023-07-31T03:12:00;0.77;;;0.77;;
73585;SDS011;61865;50.232;18.614;2023-07-31T03:14:23;0.50;;;0.50;;
73585;SDS011;61865;50.232;18.614;2023-07-31T03:16:46;0.40;;;0.40;;
73585;SDS011;61865;50.232;18.614;2023-07-31T03:19:08;0.65;;;0.65;;
73585;SDS011;61865;50.232;18.614;2023-07-31T03:21:31;0.60;;;0.60;;
73585;SDS011;61865;50.232;18.614;2023-07-31T03:23:55;0.40;;;0.40;;
73585;SDS011;61865;50.232;18.614;2023-07-31T03:26:17;0.40;;;0.40;;
73585;SDS011;61865;50.232;18.614;2023-07-31T03:28:39;0.65;;;0.65;;
73585;SDS011;61865;50.232;18.614;2023-07-31T03:31:04;0.40;;;0.40;;
73585;SDS011;61865;50.232;18.614;2023-07-31T03:33:28;0.30;;;0.30;;
73585;SDS011;61865;50.232;18.614;2023-07-31T03:35:50;0.30;;;0.30;;
73585;SDS011;61865;50.232;18.614;2023-07-31T03:38:13;0.30;;;0.30;;
73585;SDS011;61865;50.232;18.614;2023-07-31T03:40:36;0.30;;;0.30;;
73585;SDS011;61865;50.232;18.614;2023-07-31T03:42:59;0.30;;;0.30;;
73585;SDS011;61865;50.232;18.614;2023-07-31T03:45:21;0.30;;;0.30;;
73585;SDS011;61865;50.232;18.614;2023-07-31T03:47:43;0.30;;;0.30;;
73585;SDS011;61865;50.232;18.614;2023-07-31T03:50:06;0.30;;;0.30;;
73585;SDS011;61865;50.232;18.614;2023-07-31T03:52:29;0.30;;;0.30;;
73585;SDS011;61865;50.232;18.614;2023-07-31T03:54:51;0.30;;;0.30;;
73585;SDS011;61865;50.232;18.614;2023-07-31T03:57:15;0.30;;;0.30;;
73585;SDS011;61865;50.232;18.614;2023-07-31T03:59:37;0.30;;;0.30;;
73585;SDS011;61865;50.232;18.614;2023-07-31T04:01:59;0.30;;;0.30;;
73585;SDS011;61865;50.232;18.614;2023-07-31T04:04:22;0.50;;;0.50;;
73585;SDS011;61865;50.232;18.614;2023-07-31T04:06:44;0.30;;;0.30;;
73585;SDS011;61865;50.232;18.614;2023-07-31T04:09:06;0.30;;;0.30;;
73585;SDS011;61865;50.232;18.614;2023-07-31T04:11:29;0.30;;;0.30;;
73585;SDS011;61865;50.232;18.614;2023-07-31T04:13:52;0.90;;;0.90;;
73585;SDS011;61865;50.232;18.614;2023-07-31T04:16:15;0.30;;;0.30;;
73585;SDS011;61865;50.232;18.614;2023-07-31T04:18:37;3.83;;;3.60;;
73585;SDS011;61865;50.232;18.614;2023-07-31T04:20:59;0.30;;;0.30;;
73585;SDS011;61865;50.232;18.614;2023-07-31T04:23:22;0.30;;;0.30;;
73585;SDS011;61865;50.232;18.614;2023-07-31T04:25:44;1.38;;;1.27;;
73585;SDS011;61865;50.232;18.614;2023-07-31T04:28:07;0.40;;;0.40;;
73585;SDS011;61865;50.232;18.614;2023-07-31T04:30:30;0.40;;;0.40;;
73585;SDS011;61865;50.232;18.614;2023-07-31T04:32:53;0.30;;;0.30;;
73585;SDS011;61865;50.232;18.614;2023-07-31T04:35:15;0.30;;;0.30;;
73585;SDS011;61865;50.232;18.614;2023-07-31T04:37:37;0.30;;;0.30;;
73585;SDS011;61865;50.232;18.614;2023-07-31T04:40:00;0.30;;;0.30;;
73585;SDS011;61865;50.232;18.614;2023-07-31T04:42:22;0.30;;;0.30;;
73585;SDS011;61865;50.232;18.614;2023-07-31T04:44:45;0.30;;;0.30;;
73585;SDS011;61865;50.232;18.614;2023-07-31T04:47:08;0.30;;;0.30;;
73585;SDS011;61865;50.232;18.614;2023-07-31T04:49:31;0.30;;;0.30;;
73585;SDS011;61865;50.232;18.614;2023-07-31T04:51:53;0.20;;;0.20;;
73585;SDS011;61865;50.232;18.614;2023-07-31T04:54:16;0.55;;;0.55;;
73585;SDS011;61865;50.232;18.614;2023-07-31T04:56:38;0.30;;;0.30;;
73585;SDS011;61865;50.232;18.614;2023-07-31T04:59:00;0.40;;;0.40;;
73585;SDS011;61865;50.232;18.614;2023-07-31T05:01:23;0.20;;;0.20;;
73585;SDS011;61865;50.232;18.614;2023-07-31T05:03:46;0.20;;;0.20;;
73585;SDS011;61865;50.232;18.614;2023-07-31T05:06:09;0.30;;;0.30;;
73585;SDS011;61865;50.232;18.614;2023-07-31T05:08:32;0.30;;;0.30;;
73585;SDS011;61865;50.232;18.614;2023-07-31T05:10:54;0.30;;;0.30;;
73585;SDS011;61865;50.232;18.614;2023-07-31T05:13:17;0.30;;;0.30;;
73585;SDS011;61865;50.232;18.614;2023-07-31T05:15:39;0.93;;;0.88;;
73585;SDS011;61865;50.232;18.614;2023-07-31T05:18:03;0.40;;;0.40;;
73585;SDS011;61865;50.232;18.614;2023-07-31T05:20:26;0.30;;;0.30;;
73585;SDS011;61865;50.232;18.614;2023-07-31T05:22:49;0.30;;;0.30;;
73585;SDS011;61865;50.232;18.614;2023-07-31T05:25:12;0.20;;;0.20;;
73585;SDS011;61865;50.232;18.614;2023-07-31T05:27:38;0.25;;;0.25;;
73585;SDS011;61865;50.232;18.614;2023-07-31T05:30:00;0.20;;;0.20;;
73585;SDS011;61865;50.232;18.614;2023-07-31T05:32:22;0.20;;;0.20;;
73585;SDS011;61865;50.232;18.614;2023-07-31T05:34:45;0.20;;;0.20;;
73585;SDS011;61865;50.232;18.614;2023-07-31T05:37:09;0.30;;;0.30;;
73585;SDS011;61865;50.232;18.614;2023-07-31T05:39:32;1.20;;;0.90;;
73585;SDS011;61865;50.232;18.614;2023-07-31T05:41:54;0.20;;;0.20;;
73585;SDS011;61865;50.232;18.614;2023-07-31T05:44:17;0.30;;;0.30;;
73585;SDS011;61865;50.232;18.614;2023-07-31T05:46:39;0.43;;;0.43;;
73585;SDS011;61865;50.232;18.614;2023-07-31T05:49:02;0.40;;;0.40;;
73585;SDS011;61865;50.232;18.614;2023-07-31T05:51:24;0.30;;;0.30;;
73585;SDS011;61865;50.232;18.614;2023-07-31T05:53:48;0.20;;;0.20;;
73585;SDS011;61865;50.232;18.614;2023-07-31T05:56:10;0.20;;;0.20;;
73585;SDS011;61865;50.232;18.614;2023-07-31T05:58:32;0.40;;;0.40;;
73585;SDS011;61865;50.232;18.614;2023-07-31T06:00:55;0.32;;;0.32;;
73585;SDS011;61865;50.232;18.614;2023-07-31T06:03:17;1.20;;;1.17;;
73585;SDS011;61865;50.232;18.614;2023-07-31T06:05:39;0.20;;;0.20;;
73585;SDS011;61865;50.232;18.614;2023-07-31T06:08:01;0.20;;;0.20;;
73585;SDS011;61865;50.232;18.614;2023-07-31T06:10:25;0.30;;;0.30;;
73585;SDS011;61865;50.232;18.614;2023-07-31T06:12:48;0.20;;;0.20;;
73585;SDS011;61865;50.232;18.614;2023-07-31T06:15:10;3.78;;;1.85;;
73585;SDS011;61865;50.232;18.614;2023-07-31T06:17:33;0.52;;;0.52;;
73585;SDS011;61865;50.232;18.614;2023-07-31T06:19:55;0.30;;;0.30;;
73585;SDS011;61865;50.232;18.614;2023-07-31T06:22:18;0.20;;;0.20;;
73585;SDS011;61865;50.232;18.614;2023-07-31T06:24:40;0.30;;;0.30;;
73585;SDS011;61865;50.232;18.614;2023-07-31T06:27:04;4.93;;;2.42;;
73585;SDS011;61865;50.232;18.614;2023-07-31T06:29:27;6.30;;;2.20;;
73585;SDS011;61865;50.232;18.614;2023-07-31T06:31:49;4.25;;;2.55;;
73585;SDS011;61865;50.232;18.614;2023-07-31T06:34:11;4.55;;;2.38;;
73585;SDS011;61865;50.232;18.614;2023-07-31T06:36:34;3.83;;;2.10;;
73585;SDS011;61865;50.232;18.614;2023-07-31T06:38:56;4.82;;;2.13;;
73585;SDS011;61865;50.232;18.614;2023-07-31T06:41:18;4.93;;;1.98;;
73585;SDS011;61865;50.232;18.614;2023-07-31T06:43:42;5.70;;;2.22;;
73585;SDS011;61865;50.232;18.614;2023-07-31T06:46:05;6.82;;;2.50;;
73585;SDS011;61865;50.232;18.614;2023-07-31T06:48:27;5.63;;;2.10;;
73585;SDS011;61865;50.232;18.614;2023-07-31T06:50:50;4.53;;;2.63;;
73585;SDS011;61865;50.232;18.614;2023-07-31T06:53:12;3.70;;;2.08;;
73585;SDS011;61865;50.232;18.614;2023-07-31T06:55:34;13.45;;;2.65;;
73585;SDS011;61865;50.232;18.614;2023-07-31T06:57:57;5.95;;;2.42;;
73585;SDS011;61865;50.232;18.614;2023-07-31T07:00:21;8.05;;;2.45;;
73585;SDS011;61865;50.232;18.614;2023-07-31T07:02:45;5.22;;;2.10;;
73585;SDS011;61865;50.232;18.614;2023-07-31T07:05:08;5.07;;;2.15;;
73585;SDS011;61865;50.232;18.614;2023-07-31T07:07:30;6.35;;;2.30;;
73585;SDS011;61865;50.232;18.614;2023-07-31T07:09:53;11.20;;;2.90;;
73585;SDS011;61865;50.232;18.614;2023-07-31T07:12:15;5.30;;;2.10;;
73585;SDS011;61865;50.232;18.614;2023-07-31T07:14:37;8.13;;;1.92;;
73585;SDS011;61865;50.232;18.614;2023-07-31T07:17:01;6.80;;;2.25;;
73585;SDS011;61865;50.232;18.614;2023-07-31T07:19:23;8.25;;;2.50;;
73585;SDS011;61865;50.232;18.614;2023-07-31T07:21:46;3.25;;;1.90;;
73585;SDS011;61865;50.232;18.614;2023-07-31T07:24:08;6.25;;;2.33;;
73585;SDS011;61865;50.232;18.614;2023-07-31T07:26:30;5.40;;;2.20;;
73585;SDS011;61865;50.232;18.614;2023-07-31T07:28:53;6.65;;;2.53;;
73585;SDS011;61865;50.232;18.614;2023-07-31T07:31:15;5.75;;;2.30;;
73585;SDS011;61865;50.232;18.614;2023-07-31T07:33:39;8.57;;;2.47;;
73585;SDS011;61865;50.232;18.614;2023-07-31T07:36:01;7.70;;;2.30;;
73585;SDS011;61865;50.232;18.614;2023-07-31T07:38:24;6.00;;;2.58;;
73585;SDS011;61865;50.232;18.614;2023-07-31T07:40:46;5.57;;;2.20;;
73585;SDS011;61865;50.232;18.614;2023-07-31T07:43:10;4.45;;;2.20;;
73585;SDS011;61865;50.232;18.614;2023-07-31T07:45:32;7.93;;;2.28;;
73585;SDS011;61865;50.232;18.614;2023-07-31T07:47:55;5.38;;;2.10;;
73585;SDS011;61865;50.232;18.614;2023-07-31T07:50:19;6.35;;;2.30;;
73585;SDS011;61865;50.232;18.614;2023-07-31T07:52:42;8.90;;;2.65;;
73585;SDS011;61865;50.232;18.614;2023-07-31T07:55:04;4.47;;;2.30;;
73585;SDS011;61865;50.232;18.614;2023-07-31T07:57:27;6.20;;;2.08;;
73585;SDS011;61865;50.232;18.614;2023-07-31T07:59:49;9.65;;;2.38;;
73585;SDS011;61865;50.232;18.614;2023-07-31T08:02:11;3.65;;;1.95;;
73585;SDS011;61865;50.232;18.614;2023-07-31T08:04:33;4.70;;;2.03;;
73585;SDS011;61865;50.232;18.614;2023-07-31T08:06:57;5.22;;;2.10;;
73585;SDS011;61865;50.232;18.614;2023-07-31T08:09:20;8.88;;;2.08;;
73585;SDS011;61865;50.232;18.614;2023-07-31T08:11:42;6.15;;;1.95;;
73585;SDS011;61865;50.232;18.614;2023-07-31T08:14:04;5.55;;;2.20;;
73585;SDS011;61865;50.232;18.614;2023-07-31T08:16:26;12.00;;;2.60;;
73585;SDS011;61865;50.232;18.614;2023-07-31T08:18:49;6.32;;;2.30;;
73585;SDS011;61865;50.232;18.614;2023-07-31T08:21:11;8.15;;;2.00;;
73585;SDS011;61865;50.232;18.614;2023-07-31T08:23:35;7.25;;;2.55;;
73585;SDS011;61865;50.232;18.614;2023-07-31T08:25:57;7.60;;;2.35;;
73585;SDS011;61865;50.232;18.614;2023-07-31T08:28:20;5.43;;;2.17;;
73585;SDS011;61865;50.232;18.614;2023-07-31T08:30:42;13.70;;;3.00;;
73585;SDS011;61865;50.232;18.614;2023-07-31T08:33:04;6.05;;;1.85;;
73585;SDS011;61865;50.232;18.614;2023-07-31T08:35:27;6.75;;;2.10;;
73585;SDS011;61865;50.232;18.614;2023-07-31T08:37:49;5.47;;;2.10;;
73585;SDS011;61865;50.232;18.614;2023-07-31T08:40:13;4.53;;;1.77;;
73585;SDS011;61865;50.232;18.614;2023-07-31T08:42:42;3.60;;;1.90;;
73585;SDS011;61865;50.232;18.614;2023-07-31T08:45:05;5.85;;;2.10;;
73585;SDS011;61865;50.232;18.614;2023-07-31T08:47:27;5.38;;;1.90;;
73585;SDS011;61865;50.232;18.614;2023-07-31T08:49:50;5.57;;;2.35;;
73585;SDS011;61865;50.232;18.614;2023-07-31T08:52:13;10.98;;;2.00;;
73585;SDS011;61865;50.232;18.614;2023-07-31T08:54:35;9.15;;;2.10;;
73585;SDS011;61865;50.232;18.614;2023-07-31T08:56:59;3.88;;;2.10;;
73585;SDS011;61865;50.232;18.614;2023-07-31T08:59:22;7.13;;;2.20;;
73585;SDS011;61865;50.232;18.614;2023-07-31T09:01:46;4.43;;;1.92;;
73585;SDS011;61865;50.232;18.614;2023-07-31T09:04:11;6.45;;;1.90;;
73585;SDS011;61865;50.232;18.614;2023-07-31T09:06:34;9.40;;;1.95;;
73585;SDS011;61865;50.232;18.614;2023-07-31T09:08:57;4.53;;;1.90;;
73585;SDS011;61865;50.232;18.614;2023-07-31T09:11:19;4.50;;;2.10;;
73585;SDS011;61865;50.232;18.614;2023-07-31T09:13:45;3.75;;;1.75;;
73585;SDS011;61865;50.232;18.614;2023-07-31T09:16:08;2.47;;;1.70;;
73585;SDS011;61865;50.232;18.614;2023-07-31T09:18:31;4.50;;;1.83;;
73585;SDS011;61865;50.232;18.614;2023-07-31T09:21:03;6.32;;;1.83;;
73585;SDS011;61865;50.232;18.614;2023-07-31T09:23:25;5.03;;;1.50;;
73585;SDS011;61865;50.232;18.614;2023-07-31T09:25:47;5.53;;;2.08;;
73585;SDS011;61865;50.232;18.614;2023-07-31T09:28:11;4.53;;;1.80;;
73585;SDS011;61865;50.232;18.614;2023-07-31T09:30:45;5.38;;;1.98;;
73585;SDS011;61865;50.232;18.614;2023-07-31T09:33:09;4.45;;;1.95;;
73585;SDS011;61865;50.232;18.614;2023-07-31T09:35:31;5.28;;;1.85;;
73585;SDS011;61865;50.232;18.614;2023-07-31T09:37:55;7.15;;;2.40;;
73585;SDS011;61865;50.232;18.614;2023-07-31T09:40:25;3.25;;;1.50;;
73585;SDS011;61865;50.232;18.614;2023-07-31T09:42:48;4.22;;;1.63;;
73585;SDS011;61865;50.232;18.614;2023-07-31T09:45:11;3.22;;;1.50;;
73585;SDS011;61865;50.232;18.614;2023-07-31T09:47:35;3.70;;;1.83;;
73585;SDS011;61865;50.232;18.614;2023-07-31T09:49:57;2.40;;;1.70;;
73585;SDS011;61865;50.232;18.614;2023-07-31T09:52:20;2.95;;;1.55;;
73585;SDS011;61865;50.232;18.614;2023-07-31T09:54:42;3.85;;;1.65;;
73585;SDS011;61865;50.232;18.614;2023-07-31T09:57:04;4.50;;;1.70;;
73585;SDS011;61865;50.232;18.614;2023-07-31T09:59:27;4.60;;;1.80;;
73585;SDS011;61865;50.232;18.614;2023-07-31T10:01:49;4.30;;;1.73;;
73585;SDS011;61865;50.232;18.614;2023-07-31T10:04:16;5.88;;;2.08;;
73585;SDS011;61865;50.232;18.614;2023-07-31T10:09:06;3.80;;;1.58;;
73585;SDS011;61865;50.232;18.614;2023-07-31T10:11:31;3.53;;;1.75;;
73585;SDS011;61865;50.232;18.614;2023-07-31T10:13:56;3.70;;;1.73;;
73585;SDS011;61865;50.232;18.614;2023-07-31T10:16:18;5.47;;;1.90;;
73585;SDS011;61865;50.232;18.614;2023-07-31T10:18:41;3.97;;;1.70;;
73585;SDS011;61865;50.232;18.614;2023-07-31T10:21:05;4.35;;;1.73;;
73585;SDS011;61865;50.232;18.614;2023-07-31T10:23:28;5.00;;;2.10;;
73585;SDS011;61865;50.232;18.614;2023-07-31T10:25:51;4.53;;;1.95;;
73585;SDS011;61865;50.232;18.614;2023-07-31T10:28:18;10.85;;;2.03;;
73585;SDS011;61865;50.232;18.614;2023-07-31T10:30:40;7.03;;;1.98;;
73585;SDS011;61865;50.232;18.614;2023-07-31T10:33:03;4.50;;;1.98;;
73585;SDS011;61865;50.232;18.614;2023-07-31T10:35:27;3.13;;;1.73;;
73585;SDS011;61865;50.232;18.614;2023-07-31T10:37:50;4.57;;;1.83;;
73585;SDS011;61865;50.232;18.614;2023-07-31T10:40:15;4.40;;;1.90;;
73585;SDS011;61865;50.232;18.614;2023-07-31T10:42:45;5.93;;;1.90;;
73585;SDS011;61865;50.232;18.614;2023-07-31T10:45:08;5.15;;;1.73;;
73585;SDS011;61865;50.232;18.614;2023-07-31T10:47:31;6.20;;;1.80;;
73585;SDS011;61865;50.232;18.614;2023-07-31T10:52:31;4.55;;;1.80;;
73585;SDS011;61865;50.232;18.614;2023-07-31T10:57:36;7.22;;;1.80;;
73585;SDS011;61865;50.232;18.614;2023-07-31T11:00:08;3.38;;;1.75;;
73585;SDS011;61865;50.232;18.614;2023-07-31T11:02:39;2.75;;;1.80;;
73585;SDS011;61865;50.232;18.614;2023-07-31T11:05:08;2.83;;;1.70;;
73585;SDS011;61865;50.232;18.614;2023-07-31T11:07:45;3.03;;;1.60;;
73585;SDS011;61865;50.232;18.614;2023-07-31T11:10:08;4.32;;;1.80;;
73585;SDS011;61865;50.232;18.614;2023-07-31T11:12:30;8.15;;;1.98;;
73585;SDS011;61865;50.232;18.614;2023-07-31T11:14:55;3.53;;;1.77;;
73585;SDS011;61865;50.232;18.614;2023-07-31T11:17:17;5.88;;;1.63;;
73585;SDS011;61865;50.232;18.614;2023-07-31T11:19:39;3.50;;;1.70;;
73585;SDS011;61865;50.232;18.614;2023-07-31T11:22:02;7.07;;;1.65;;
73585;SDS011;61865;50.232;18.614;2023-07-31T11:24:24;3.22;;;1.60;;
73585;SDS011;61865;50.232;18.614;2023-07-31T11:26:50;6.25;;;1.80;;
73585;SDS011;61865;50.232;18.614;2023-07-31T11:29:12;5.57;;;2.08;;
73585;SDS011;61865;50.232;18.614;2023-07-31T11:31:42;7.97;;;1.92;;
73585;SDS011;61865;50.232;18.614;2023-07-31T11:34:05;4.53;;;1.80;;
73585;SDS011;61865;50.232;18.614;2023-07-31T11:36:27;6.28;;;1.88;;
73585;SDS011;61865;50.232;18.614;2023-07-31T11:38:49;3.95;;;1.75;;
73585;SDS011;61865;50.232;18.614;2023-07-31T11:41:13;3.05;;;1.60;;
73585;SDS011;61865;50.232;18.614;2023-07-31T11:43:35;4.28;;;1.90;;
73585;SDS011;61865;50.232;18.614;2023-07-31T11:45:58;5.15;;;1.90;;
73585;SDS011;61865;50.232;18.614;2023-07-31T11:48:24;4.47;;;1.80;;
73585;SDS011;61865;50.232;18.614;2023-07-31T11:50:48;4.82;;;1.95;;
73585;SDS011;61865;50.232;18.614;2023-07-31T11:53:10;4.85;;;1.80;;
73585;SDS011;61865;50.232;18.614;2023-07-31T11:55:33;4.85;;;1.90;;
73585;SDS011;61865;50.232;18.614;2023-07-31T11:57:55;3.85;;;1.70;;
73585;SDS011;61865;50.232;18.614;2023-07-31T12:00:19;4.85;;;1.70;;
73585;SDS011;61865;50.232;18.614;2023-07-31T12:02:41;4.18;;;1.80;;
73585;SDS011;61865;50.232;18.614;2023-07-31T12:05:09;5.03;;;1.70;;
73585;SDS011;61865;50.232;18.614;2023-07-31T12:07:42;5.72;;;1.95;;
73585;SDS011;61865;50.232;18.614;2023-07-31T12:10:05;3.85;;;1.60;;
73585;SDS011;61865;50.232;18.614;2023-07-31T12:12:28;9.90;;;2.05;;
73585;SDS011;61865;50.232;18.614;2023-07-31T12:14:50;7.80;;;2.65;;
73585;SDS011;61865;50.232;18.614;2023-07-31T12:17:12;5.25;;;2.00;;
73585;SDS011;61865;50.232;18.614;2023-07-31T12:19:36;4.63;;;2.00;;
73585;SDS011;61865;50.232;18.614;2023-07-31T12:22:00;3.45;;;1.80;;
73585;SDS011;61865;50.232;18.614;2023-07-31T12:24:22;7.20;;;1.80;;
73585;SDS011;61865;50.232;18.614;2023-07-31T12:26:45;5.88;;;1.70;;
73585;SDS011;61865;50.232;18.614;2023-07-31T12:29:08;5.65;;;2.10;;
73585;SDS011;61865;50.232;18.614;2023-07-31T12:31:30;5.10;;;1.73;;
73585;SDS011;61865;50.232;18.614;2023-07-31T12:33:57;7.53;;;2.15;;
73585;SDS011;61865;50.232;18.614;2023-07-31T12:36:20;6.70;;;2.20;;
73585;SDS011;61865;50.232;18.614;2023-07-31T12:38:44;4.78;;;2.17;;
73585;SDS011;61865;50.232;18.614;2023-07-31T12:41:06;5.40;;;2.40;;
73585;SDS011;61865;50.232;18.614;2023-07-31T12:43:29;4.65;;;2.80;;
73585;SDS011;61865;50.232;18.614;2023-07-31T12:45:54;6.28;;;1.80;;
73585;SDS011;61865;50.232;18.614;2023-07-31T12:48:17;5.00;;;1.70;;
73585;SDS011;61865;50.232;18.614;2023-07-31T12:50:39;7.43;;;1.85;;
73585;SDS011;61865;50.232;18.614;2023-07-31T12:53:02;5.00;;;1.80;;
73585;SDS011;61865;50.232;18.614;2023-07-31T12:55:26;6.50;;;2.10;;
73585;SDS011;61865;50.232;18.614;2023-07-31T12:57:48;5.57;;;2.15;;
73585;SDS011;61865;50.232;18.614;2023-07-31T13:00:11;5.53;;;1.95;;
73585;SDS011;61865;50.232;18.614;2023-07-31T13:02:34;2.83;;;1.50;;
73585;SDS011;61865;50.232;18.614;2023-07-31T13:04:56;9.10;;;1.85;;
73585;SDS011;61865;50.232;18.614;2023-07-31T13:07:18;4.15;;;1.67;;
73585;SDS011;61865;50.232;18.614;2023-07-31T13:09:41;4.32;;;1.80;;
73585;SDS011;61865;50.232;18.614;2023-07-31T13:12:05;6.18;;;2.45;;
73585;SDS011;61865;50.232;18.614;2023-07-31T13:14:27;5.28;;;2.10;;
73585;SDS011;61865;50.232;18.614;2023-07-31T13:16:50;5.78;;;2.00;;
73585;SDS011;61865;50.232;18.614;2023-07-31T13:19:12;6.55;;;2.40;;
73585;SDS011;61865;50.232;18.614;2023-07-31T13:21:34;5.28;;;1.80;;
73585;SDS011;61865;50.232;18.614;2023-07-31T13:23:57;7.78;;;2.20;;
73585;SDS011;61865;50.232;18.614;2023-07-31T13:26:20;5.80;;;1.90;;
73585;SDS011;61865;50.232;18.614;2023-07-31T13:28:44;5.95;;;1.70;;
73585;SDS011;61865;50.232;18.614;2023-07-31T13:31:06;4.95;;;1.70;;
73585;SDS011;61865;50.232;18.614;2023-07-31T13:33:31;2.83;;;1.63;;
73585;SDS011;61865;50.232;18.614;2023-07-31T13:35:53;6.75;;;1.70;;
73585;SDS011;61865;50.232;18.614;2023-07-31T13:38:15;5.63;;;2.10;;
73585;SDS011;61865;50.232;18.614;2023-07-31T13:40:38;3.33;;;1.70;;
73585;SDS011;61865;50.232;18.614;2023-07-31T13:43:00;6.18;;;1.90;;
73585;SDS011;61865;50.232;18.614;2023-07-31T13:45:24;4.80;;;1.58;;
73585;SDS011;61865;50.232;18.614;2023-07-31T13:47:49;3.55;;;1.60;;
73585;SDS011;61865;50.232;18.614;2023-07-31T13:50:12;3.50;;;1.80;;
73585;SDS011;61865;50.232;18.614;2023-07-31T13:52:34;3.45;;;1.80;;
73585;SDS011;61865;50.232;18.614;2023-07-31T13:54:57;7.57;;;1.80;;
73585;SDS011;61865;50.232;18.614;2023-07-31T13:57:19;4.43;;;1.80;;
73585;SDS011;61865;50.232;18.614;2023-07-31T13:59:41;6.65;;;2.00;;
73585;SDS011;61865;50.232;18.614;2023-07-31T14:02:05;2.58;;;1.60;;
73585;SDS011;61865;50.232;18.614;2023-07-31T14:04:27;7.93;;;1.83;;
73585;SDS011;61865;50.232;18.614;2023-07-31T14:06:50;3.25;;;1.70;;
73585;SDS011;61865;50.232;18.614;2023-07-31T14:09:12;2.47;;;1.73;;
73585;SDS011;61865;50.232;18.614;2023-07-31T14:11:34;3.58;;;1.70;;
73585;SDS011;61865;50.232;18.614;2023-07-31T14:13:57;4.88;;;1.60;;
73585;SDS011;61865;50.232;18.614;2023-07-31T14:16:19;2.83;;;1.60;;